Transaero B735 at Krasnodar on Sep 25th 2015, landed on wrong runway

Last Update: September 25, 2015 / 15:12:53 GMT/Zulu time

Bookmark this article
Incident Facts

Date of incident
Sep 25, 2015

Classification
Incident

Flight number
UN-167

Aircraft Registration
VP-BPA

Aircraft Type
Boeing 737-500

ICAO Type Designator
B735

Airport ICAO Code
URKK

A Transaero Airlines Boeing 737-500, registration VP-BPA performing flight UN-167 from Moscow Domodedovo to Krasnodar (Russia) with 115 people on board, was cleared to land on Krasnodar's runway 05C however touched down on closed runway 05R. The aircraft impacted three signs before coming to a stop. There were no injuries, the passengers disembarked onto the runway and were taken to the terminal.

The aircraft is currently disabled on the closed runway, it will be towed to the apron as soon as a taxiway becomes available.

A similiar event had happened 7 weeks ago, see Incident: Kyrgyzstan B733 at Krasnodar on Aug 2nd 2015, landed on closed runway.

Related NOTAM:
A2134/15 - FLW RWY AND TWY CLOSED DUE TO REPAIR WORKS:
- RWY 05R/23L,
- TWY C SEGMENT FROM TWY M TO TWY D,
- TWY D, TWY E, TWY F, TWY G, TWY H. 28 MAY 13:20 2015 UNTIL 31 DEC 21:00 2015. CREATED: 28 MAY 13:27 2015

Possibly related NOTAMs:
A4163/15 - RWY 05C (REF AIP SUP 03/14): SALS PUT INTO OPR. APCH LGT LEN: 420M. LGT INTENSITY: LIL. 16 SEP 06:00 2015 UNTIL 28 DEC 04:00 2015. CREATED: 16 SEP 06:20 2015

A4162/15 - RWY 05C (REF AIP SUP 03/14): THR LGT PUT INTO OPR - 2 GREEN COLOUR WBAR. 16 SEP 06:00 2015 UNTIL 28 DEC 04:00 2015. CREATED: 16 SEP 06:19 2015

A4161/15 - RWY 05C (REF AIP SUP 03/14): PAPI PUT INTO OPR, LEFT 2 DEG 40 MIN, 358M FROM THR. 16 SEP 06:00 2015 UNTIL 28 DEC 04:00 2015. CREATED: 16 SEP 06:19 2015

Metars:
URKK 251400Z 06005MPS CAVOK 30/16 Q1013 R05C/CLRD70 NOSIG RMK QFE757
URKK 251330Z 07005MPS CAVOK 31/16 Q1013 R05C/CLRD70 NOSIG RMK QFE757
URKK 251300Z 07005MPS CAVOK 31/17 Q1014 R05C/CLRD70 NOSIG RMK QFE757
URKK 251230Z 10004MPS 070V130 CAVOK 31/17 Q1014 R05C/CLRD70 NOSIG RMK QFE757
URKK 251200Z 09004MPS 050V110 CAVOK 30/17 Q1014 R05C/CLRD70 NOSIG RMK QFE757
URKK 251130Z 09004MPS 030V150 CAVOK 31/17 Q1014 R05C/CLRD70 NOSIG RMK QFE757
URKK 251100Z 09005MPS CAVOK 30/18 Q1014 R23C/CLRD70 NOSIG RMK QFE757
URKK 251030Z 08004MPS 040V120 CAVOK 30/17 Q1014 R23C/CLRD70 NOSIG RMK QFE757
URKK 251000Z 08004MPS 040V110 CAVOK 29/17 Q1014 R23C/CLRD70 NOSIG RMK QFE757
URKK 250930Z 09004MPS CAVOK 29/18 Q1015 R23C/CLRD70 NOSIG RMK QFE757
Incident Facts

Date of incident
Sep 25, 2015

Classification
Incident

Flight number
UN-167

Aircraft Registration
VP-BPA

Aircraft Type
Boeing 737-500

ICAO Type Designator
B735

Airport ICAO Code
URKK

This article is published under license from Avherald.com. © of text by Avherald.com.
Article source

You can read 4 more free articles without a subscription.

Subscribe now and continue reading without any limits!

Are you a subscriber?
Login
Subscribe

Read unlimited articles and receive our daily update briefing. Gain better insights into what is happening in commercial aviation safety.

Free newsletter

Want to know more and stay ahead? Get our free weekly newsletter and join 4854 existing subscribers.

By subscribing, you accept our terms and conditions and confirm that you've read our privacy policy.

Send tip

Support AeroInside by sending a small tip amount.

Related articles

Newest articles

Subscribe today

Are you researching aviation incidents? Get access to AeroInside Insights, unlimited read access and receive the daily newsletter.

Pick your plan and subscribe

Partner

Blockaviation logo

A new way to document and demonstrate airworthiness compliance and aircraft value. Find out more.

Virtual Speech logo

Train yourself online in VR with the special course for aviation: "Crisis Communications: Airlines". Find out more.

Get updates

Never miss an article from AeroInside. Subscribe to our free weekly newsletter and join 4854 existing subscribers.

By subscribing, you accept our terms and conditions and that you've read our privacy policy.

AeroInside Blog
Popular aircraft
Airbus A320
Boeing 737-800
Boeing 737-800 MAX
Popular airlines
American Airlines
United
Delta
Air Canada
Lufthansa
British Airways